This is the latest recevied weather packets stored in our database for station/object EA5JZL-10. If no packets are shown the sender has not sent any weather packets the latest 10 day(s).
| Time | Temp. | Humidity | Pressure | Rain* | Wind** | Luminosity | Snow |
|---|---|---|---|---|---|---|---|
| 1777234857 | 23.33° C | 44% | 1019.5 hPa | - | - | - | - |
| 1777233057 | 21.11° C | 47% | 1019 hPa | - | - | - | - |
| 1777231256 | 21.67° C | 46% | 1018.6 hPa | - | - | - | - |
| 1777229524 | 22.78° C | 44% | 1018.1 hPa | - | - | - | - |
| 1777229492 | 22.78° C | 44% | 1018.1 hPa | - | - | - | - |
| 1777229456 | 22.78° C | 44% | 1018.1 hPa | - | - | - | - |
| 1777227656 | 23.33° C | 40% | 1017.8 hPa | - | - | - | - |
| 1777225856 | 22.22° C | 41% | 1017.7 hPa | - | - | - | - |
| 1777224090 | 22.78° C | 42% | 1017.6 hPa | - | - | - | - |
| 1777224056 | 22.78° C | 42% | 1017.6 hPa | - | - | - | - |
| 1777222256 | 23.33° C | 41% | 1017.6 hPa | - | - | - | - |
| 1777220455 | 23.89° C | 39% | 1017.5 hPa | - | - | - | - |
| 1777218655 | 23.89° C | 38% | 1017.6 hPa | - | - | - | - |
| 1777216855 | 23.33° C | 41% | 1017.5 hPa | - | - | - | - |
| 1777215055 | 23.33° C | 42% | 1017.7 hPa | - | - | - | - |
| 1777213255 | 23.33° C | 40% | 1018 hPa | - | - | - | - |
| 1777211519 | 23.33° C | 42% | 1018.3 hPa | - | - | - | - |
| 1777211454 | 23.33° C | 42% | 1018.3 hPa | - | - | - | - |
| 1777209654 | 22.78° C | 43% | 1018.2 hPa | - | - | - | - |
| 1777207887 | 23.33° C | 43% | 1018.3 hPa | - | - | - | - |
| 1777207854 | 23.33° C | 43% | 1018.3 hPa | - | - | - | - |
| 1777206054 | 23.89° C | 41% | 1018.4 hPa | - | - | - | - |
| 1777204254 | 23.89° C | 40% | 1018.7 hPa | - | - | - | - |
| 1777202454 | 22.22° C | 44% | 1019 hPa | - | - | - | - |
| 1777200653 | 21.11° C | 47% | 1019.2 hPa | - | - | - | - |
* Rain since midnight (hover to see other rain measurements)
** Current wind speed in m/s (hover to see current wind gust speed)